METAR Data
IDs: Format: Raw Decoded Include TAF

Data at: 1758 UTC 21 Sep 2018

KPIL 211753Z AUTO 16016KT 10SM BKN039 BKN049 33/23 A2989 RMK AO2 SLP122 T03280228 10333 20272 58004
KPIL 211653Z AUTO 18012KT 10SM FEW036 32/23 A2991 RMK AO2 SLP128 T03220233
KPIL 211553Z AUTO 19011G19KT 10SM FEW029 32/24 A2991 RMK AO2 SLP128 T03170239
KPIL 211453Z AUTO 16011KT 10SM CLR 30/24 A2991 RMK AO2 SLP127 T03000244 51008
KPIL 211353Z AUTO 15008KT 10SM CLR 29/25 A2990 RMK AO2 SLP124 T02890250
KPIL 211253Z AUTO 15005KT 9SM CLR 28/25 A2990 RMK AO2 SLP123 T02780250
KPIL 211153Z AUTO 15005KT 10SM FEW020 27/24 A2988 RMK AO2 SLP119 T02720244 10283 20272 51007
KPIL 211053Z AUTO 15005KT 8SM CLR 27/24 A2988 RMK AO2 SLP117 T02720244
KPIL 211050Z AUTO 15005KT 8SM CLR 27/24 A2988 RMK AO2
KPIL 211042Z AUTO 15006KT 2SM HZ CLR 27/24 A2988 RMK AO2 T02720244
KPIL 210953Z AUTO 15007KT 10SM CLR 28/24 A2986 RMK AO2 SLP112 T02780244
KPIL 210853Z AUTO 15006KT 10SM CLR 28/24 A2987 RMK AO2 SLP115 T02780244 56013
KPIL 210753Z AUTO 14009KT 10SM CLR 28/24 A2988 RMK AO2 SLP118 T02830244
KPIL 210653Z AUTO 15008KT 10SM CLR 28/24 A2990 RMK AO2 SLP123 T02830244
KPIL 210553Z AUTO 14009KT 10SM CLR 28/25 A2991 RMK AO2 SLP128 T02830250 10300 20283 403330272 50002
KPIL 210453Z AUTO 14010KT 10SM FEW017 28/25 A2992 RMK AO2 SLP133 T02830250
KPIL 210353Z AUTO 14012KT 10SM CLR 29/25 A2992 RMK AO2 SLP130 T02890250
KPIL 210253Z AUTO 14010KT 10SM CLR 29/24 A2991 RMK AO2 SLP126 T02890244 53015
KPIL 210153Z AUTO 15010KT 10SM CLR 29/24 A2988 RMK AO2 SLP119 T02890244
KPIL 210053Z AUTO 13010KT 10SM FEW021 29/24 A2988 RMK AO2 SLP117 T02940244
KPIL 202353Z AUTO 14013KT 10SM FEW024 30/24 A2986 RMK AO2 SLP111 T03000244 10333 20300 53000
KPIL 202253Z AUTO 13014KT 10SM FEW023 31/24 A2984 RMK AO2 SLP104 T03110244
KPIL 202153Z AUTO 14017KT 10SM FEW027 32/24 A2984 RMK AO2 SLP105 T03220239
KPIL 202053Z AUTO 13015G21KT 10SM FEW029 FEW039 32/24 A2986 RMK AO2 SLP111 T03220244 58017
KPIL 201953Z AUTO 14016G23KT 10SM FEW027 FEW038 33/25 A2987 RMK AO2 SLP115 T03280250
KPIL 201853Z AUTO 13015KT 10SM FEW032 32/24 A2990 RMK AO2 SLP124 T03220239
KPIL 201753Z AUTO 15013KT 10SM CLR 33/24 A2991 RMK AO2 SLP127 T03280244 10328 20272 58004
KPIL 201653Z AUTO 13014G19KT 10SM SCT032 32/24 A2992 RMK AO2 SLP132 T03220239
KPIL 201553Z AUTO 15014KT 10SM SCT029 SCT034 32/24 A2993 RMK AO2 SLP134 T03220239
KPIL 201453Z AUTO 16011KT 10SM SCT023 31/24 A2992 RMK AO2 SLP131 T03060244 52009
KPIL 201353Z AUTO 15011KT 10SM CLR 29/24 A2991 RMK AO2 SLP128 T02940244
KPIL 201253Z AUTO 14005KT 10SM CLR 27/24 A2990 RMK AO2 SLP125 T02720244
KPIL 201153Z AUTO 18004KT 10SM FEW020 27/24 A2989 RMK AO2 SLP122 T02720244 10278 20272 53002
KPIL 201053Z AUTO 15004KT 10SM FEW021 27/24 A2988 RMK AO2 SLP119 T02720244
KPIL 200953Z AUTO 16004KT 10SM CLR 27/24 A2988 RMK AO2 SLP117 T02720244
KPIL 200853Z AUTO 15004KT 10SM FEW020 SCT027 SCT034 27/24 A2989 RMK AO2 SLP120 T02720244 57009
KPIL 200753Z AUTO 13005KT 10SM CLR 28/24 A2990 RMK AO2 SLP124 T02780244
KPIL 200653Z AUTO 15007KT 10SM CLR 28/24 A2990 RMK AO2 SLP126 T02780244